KPAM/PAM METAR and TAF weather

Enter ICAO airport designator
Station Type Date Time Source
KPAM METAR 2021/05/14 12:56 UTC NOAA

KPAM 141256Z AUTO 05007KT 10SM CLR 17/13 A3021 RMK AO2 SLP233 T01730126 $


Station Type Date Time Source
KPAM Decoded METAR 2021/05/14 12:56 UTC NOAA

Tyndall Air Force Base, FL, United States (KPAM) 30-04N 085-35W 13M
May 14, 2021 - 08:56 AM EDT / 2021.05.14 1256 UTC
Wind: from the NE (050 degrees) at 8 MPH (7 KT):0
Visibility: 10 mile(s):0
Sky conditions: clear
Temperature: 63.1 F (17.3 C)
Dew Point: 54.7 F (12.6 C)
Relative Humidity: 73%
Pressure (altimeter): 30.21 in. Hg (1023 hPa)
ob: KPAM 141256Z AUTO 05007KT 10SM CLR 17/13 A3021 RMK AO2 SLP233 T01730126
cycle: 13

Station Type Date Time Source
KPAM TAF 2021/05/14 11:07 UTC NOAA

TAF KPAM 141100Z 1411/1517 03006KT 9999 FEW040 QNH3012INS WND 05012G18KT AFT 1416
BECMG 1421/1422 04006KT 9999 SKC QNH3014INS TX26/1420Z TN15/1411Z

Example: see airport list